Odate Noshiro, Japan

11:51 AM JST on February 10, 2016 (GMT +0900)
Odate-Noshiro | | Change Station
CLOSE
Current Station
Airport
Location: Odate Noshiro,
Elevation: 285 ft
Nearby Weather Stations

Elev 285 ft 40.19 °N, 140.37 °E | Updated 38 minutes ago

Light Snow Showers
Light Showers Snow
28 °F
Feels Like 18 °F
N
13
Wind Variable Wind from West

Today
High -- | Low -- °F
--% Chance of Precip.
Yesterday
High -- | Low -- °F
Precip. -- in
Pressure 30.04 in
Visibility 3.7 miles
Clouds Few 200 ft
Scattered Clouds 1000 ft
Mostly Cloudy 3000 ft
Windchill 18 °F
Dew Point 27 °F
Humidity 93%
Rainfall 0.00 in
Snow Depth Not available.
6:39 AM 5:06 PM
Waxing Crescent, 3% visible
SPECI RJSR 100213Z 26011KT 6000 -SHSN FEW002 SCT010 BKN030 M02/M03 Q1017 RMK 1ST002 3ST010 6CU030 A3005 2000E-SW
Pressure 30.04 in
Visibility 3.7 miles
Clouds Few 200 ft
Scattered Clouds 1000 ft
Mostly Cloudy 3000 ft
Windchill 18 °F
Dew Point 27 °F
Humidity 93%
Rainfall 0.00 in
Snow Depth Not available.
6:39 AM 5:06 PM
Waxing Crescent, 3% visible
SPECI RJSR 100213Z 26011KT 6000 -SHSN FEW002 SCT010 BKN030 M02/M03 Q1017 RMK 1ST002 3ST010 6CU030 A3005 2000E-SW

10-Day Weather Forecast

No radar image for this location.
×

Almanac

Astronomy

Feb. 10, 2016 Rise Set
Actual Time
Civil Twilight
Nautical Twilight
Astronomical Twilight
Moon
Length of Visible Light
Length of Day
Tomorrow will be .
, % of the Moon is Illuminated

Today's Extremes

Country Highs Country Lows

Community

WunderPhotos

Upload Photos

1,891,786 photos uploaded!

WunderBlog® & News

Nearby

Air Quality

  Air Quality AQ Index Pollutant
Not available.

Snow Depth

Station Depth Elevation

Earthquake Activity

City Distance Mag. Time & Date
Minimum magnitude displayed is 2.5.

Coastal Water Temperatures

Place Temperature

Stations

Nearby Weather Stations

Station Location Temp. Windchill Dew Point Humidity Wind Precip. Elev Updated Type